Time;durP1;ratioP1;P1;durP2;ratioP2;P2;SDS_P1;SDS_P2;PMS_P1;PMS_P2;Temp;Humidity;BMP_temperature;BMP_pressure;BME280_temperature;BME280_humidity;BME280_pressure;Samples;Min_cycle;Max_cycle;Signal;HPM_P1;HPM_P2
2023/06/13 00:07:16;;;;;;;;;;;17.60;95.50;;;;;;20854950;28;19927;-76
2023/06/13 00:17:17;;;;;;;;;;;17.40;95.70;;;;;;20841445;28;20471;-76
2023/06/13 00:27:18;;;;;;;;;;;17.40;96.10;;;;;;20837451;28;19917;-76
2023/06/13 00:37:18;;;;;;;;;;;17.30;96.20;;;;;;20837111;28;19925;-75
2023/06/13 00:47:19;;;;;;;;;;;17.10;96.70;;;;;;20839004;28;19976;-76
2023/06/13 00:57:20;;;;;;;;;;;17.10;96.70;;;;;;20835194;28;19913;-76
2023/06/13 01:07:21;;;;;;;;;;;16.90;97.30;;;;;;20834961;28;19947;-76
2023/06/13 01:17:25;;;;;;;;;;;16.50;98.20;;;;;;20880192;28;19913;-76
2023/06/13 01:27:27;;;;;;;;;;;16.20;99.30;;;;;;20931279;28;19955;-77
2023/06/13 01:37:28;;;;;;;;;;;16.10;99.70;;;;;;20843273;28;19917;-77
2023/06/13 01:47:35;;;;;;;;;;;16.20;99.40;;;;;;20882205;28;20043;-77
2023/06/13 01:57:40;;;;;;;;;;;16.30;98.70;;;;;;20880334;28;20363;-77
2023/06/13 02:07:42;;;;;;;;;;;15.90;99.40;;;;;;20866658;28;20035;-77
2023/06/13 02:17:42;;;;;;;;;;;15.20;99.90;;;;;;20875247;28;19920;-77
2023/06/13 02:27:43;;;;;;;;;;;15.10;99.90;;;;;;20870433;28;19917;-77
2023/06/13 02:37:44;;;;;;;;;;;15.00;99.90;;;;;;20877077;28;19917;-77
2023/06/13 02:47:45;;;;;;;;;;;14.90;99.90;;;;;;20868027;28;20306;-77
2023/06/13 02:57:45;;;;;;;;;;;14.80;99.90;;;;;;20875561;28;19913;-77
2023/06/13 03:07:48;;;;;;;;;;;14.90;99.90;;;;;;20862643;28;21435;-77
2023/06/13 03:17:56;;;;;;;;;;;15.00;99.90;;;;;;20862305;28;19912;-77
2023/06/13 03:27:57;;;;;;;;;;;14.90;99.90;;;;;;20858862;28;19917;-77
2023/06/13 03:37:58;;;;;;;;;;;14.90;99.90;;;;;;20858074;28;20405;-77
2023/06/13 03:48:02;;;;;;;;;;;14.70;99.90;;;;;;20855945;28;19917;-77
2023/06/13 03:58:03;;;;;;;;;;;14.30;99.90;;;;;;20856328;28;19919;-77
2023/06/13 04:08:06;;;;;;;;;;;14.10;99.90;;;;;;20837593;28;20039;-76
2023/06/13 04:18:09;;;;;;;;;;;14.30;99.90;;;;;;20866391;28;19917;-76
2023/06/13 04:28:10;;;;;;;;;;;14.20;99.90;;;;;;20853596;28;20276;-75
2023/06/13 04:38:11;;;;;;;;;;;14.60;99.90;;;;;;20863108;28;19996;-76
2023/06/13 04:48:12;;;;;;;;;;;14.80;99.90;;;;;;20863544;28;19917;-75
2023/06/13 04:58:12;;;;;;;;;;;15.10;99.90;;;;;;20876510;28;19923;-76
2023/06/13 05:08:13;;;;;;;;;;;15.50;99.90;;;;;;20878098;28;19916;-74
2023/06/13 05:18:14;;;;;;;;;;;15.80;99.90;;;;;;20877497;28;20417;-77
2023/06/13 05:28:16;;;;;;;;;;;16.30;99.90;;;;;;20876541;28;20007;-77
2023/06/13 05:38:18;;;;;;;;;;;16.60;99.90;;;;;;20875557;28;20307;-76
2023/06/13 05:48:18;;;;;;;;;;;16.90;99.90;;;;;;20862701;28;19924;-77
2023/06/13 05:58:19;;;;;;;;;;;17.30;99.90;;;;;;20851145;28;19913;-77
2023/06/13 06:08:20;;;;;;;;;;;17.80;99.20;;;;;;20869454;28;19961;-77
2023/06/13 06:18:21;;;;;;;;;;;17.70;96.60;;;;;;20843080;28;20295;-77
2023/06/13 06:28:22;;;;;;;;;;;18.10;95.70;;;;;;20862472;28;19966;-77
2023/06/13 06:38:23;;;;;;;;;;;18.40;94.80;;;;;;20859838;28;19916;-77
2023/06/13 06:48:24;;;;;;;;;;;18.90;94.60;;;;;;20870244;28;20429;-77
2023/06/13 06:58:24;;;;;;;;;;;19.10;94.00;;;;;;20869611;28;19913;-78
2023/06/13 07:08:25;;;;;;;;;;;19.40;93.90;;;;;;20869169;28;19940;-77
2023/06/13 07:18:26;;;;;;;;;;;20.00;93.30;;;;;;20867353;28;19913;-77
2023/06/13 07:28:27;;;;;;;;;;;20.30;93.00;;;;;;20859523;28;19988;-77
2023/06/13 07:38:27;;;;;;;;;;;20.50;92.30;;;;;;20854090;28;19924;-77
2023/06/13 07:48:28;;;;;;;;;;;21.00;91.70;;;;;;20864811;28;20471;-77
2023/06/13 07:58:28;;;;;;;;;;;21.80;91.00;;;;;;20847208;28;19963;-76
2023/06/13 08:08:29;;;;;;;;;;;22.50;90.50;;;;;;20866884;28;20322;-77
2023/06/13 08:18:30;;;;;;;;;;;22.70;90.30;;;;;;20857702;28;19959;-76
2023/06/13 08:28:31;;;;;;;;;;;22.70;91.60;;;;;;20855250;28;19925;-76
2023/06/13 08:38:31;;;;;;;;;;;23.30;90.10;;;;;;20858916;28;19916;-76
2023/06/13 08:48:32;;;;;;;;;;;24.10;89.60;;;;;;20867381;28;20418;-77
2023/06/13 08:58:35;;;;;;;;;;;24.60;88.90;;;;;;20886649;28;20251;-76
2023/06/13 09:08:36;;;;;;;;;;;25.20;85.20;;;;;;20879968;28;19917;-76
2023/06/13 09:18:40;;;;;;;;;;;24.80;87.10;;;;;;20866544;28;19913;-76
2023/06/13 09:28:42;;;;;;;;;;;24.90;86.80;;;;;;20878008;28;19917;-77
2023/06/13 09:38:43;;;;;;;;;;;25.90;85.20;;;;;;20862152;28;19939;-77
2023/06/13 09:48:44;;;;;;;;;;;25.80;86.60;;;;;;20856821;28;19917;-77
2023/06/13 09:58:45;;;;;;;;;;;25.80;84.40;;;;;;20844976;28;19921;-77
2023/06/13 10:08:46;;;;;;;;;;;26.70;84.30;;;;;;20849875;28;19994;-77
2023/06/13 10:18:47;;;;;;;;;;;26.90;83.00;;;;;;20841311;28;19977;-77
2023/06/13 10:28:51;;;;;;;;;;;27.30;81.90;;;;;;20852133;28;19917;-77
2023/06/13 10:39:03;;;;;;;;;;;27.00;81.50;;;;;;20870380;28;19921;-77
2023/06/13 10:49:04;;;;;;;;;;;27.60;80.70;;;;;;20853213;28;20296;-77
2023/06/13 10:59:09;;;;;;;;;;;27.70;81.20;;;;;;20867565;28;19920;-77
2023/06/13 11:09:25;;;;;;;;;;;27.80;81.70;;;;;;20855853;28;19917;-76
2023/06/13 11:19:27;;;;;;;;;;;28.10;80.40;;;;;;20857268;28;19913;-77
2023/06/13 11:29:28;;;;;;;;;;;28.80;77.90;;;;;;20866830;28;19921;-77
2023/06/13 11:39:39;;;;;;;;;;;28.20;79.50;;;;;;20866451;28;19916;-77
2023/06/13 11:49:42;;;;;;;;;;;27.70;79.20;;;;;;20848757;28;20339;-78
2023/06/13 11:59:43;;;;;;;;;;;29.30;78.30;;;;;;20867614;28;19920;-79
2023/06/13 12:09:44;;;;;;;;;;;29.20;77.50;;;;;;20887470;28;19960;-76
2023/06/13 12:19:44;;;;;;;;;;;29.30;78.40;;;;;;20863289;28;20394;-76
2023/06/13 12:29:46;;;;;;;;;;;28.30;77.20;;;;;;20880728;28;20030;-76
2023/06/13 12:40:12;;;;;;;;;;;28.90;76.00;;;;;;20873595;28;20396;-74
2023/06/13 12:50:13;;;;;;;;;;;29.50;74.20;;;;;;20847909;28;20002;-75
2023/06/13 13:00:18;;;;;;;;;;;29.10;73.00;;;;;;20845894;28;19992;-76
2023/06/13 13:10:19;;;;;;;;;;;29.10;72.60;;;;;;20847422;28;20000;-76
2023/06/13 13:20:19;;;;;;;;;;;29.50;71.40;;;;;;20833639;28;19951;-77
2023/06/13 13:30:20;;;;;;;;;;;29.30;73.40;;;;;;20832598;28;19975;-74
2023/06/13 13:40:24;;;;;;;;;;;29.40;71.00;;;;;;20831864;28;19991;-74
2023/06/13 13:50:24;;;;;;;;;;;28.90;70.20;;;;;;20831649;28;20311;-76
2023/06/13 14:00:26;;;;;;;;;;;29.20;69.70;;;;;;20830480;28;19996;-76
2023/06/13 14:10:27;;;;;;;;;;;28.60;69.00;;;;;;20876025;28;20323;-74
2023/06/13 14:20:27;;;;;;;;;;;28.80;69.00;;;;;;20865879;28;20015;-75
2023/06/13 14:30:28;;;;;;;;;;;29.40;66.60;;;;;;20828963;28;19960;-76
2023/06/13 14:40:29;;;;;;;;;;;29.40;64.70;;;;;;20829251;28;19964;-74
2023/06/13 14:50:31;;;;;;;;;;;29.00;62.30;;;;;;20837276;28;19975;-74
2023/06/13 15:00:33;;;;;;;;;;;28.90;64.50;;;;;;20900737;23;20455;-75
2023/06/13 15:10:33;;;;;;;;;;;29.30;60.50;;;;;;20959430;28;19949;-75
2023/06/13 15:20:34;;;;;;;;;;;28.70;60.40;;;;;;20992566;28;19913;-75
2023/06/13 15:30:35;;;;;;;;;;;28.50;60.30;;;;;;20993329;28;19916;-75
2023/06/13 15:40:36;;;;;;;;;;;28.60;60.10;;;;;;20982203;28;20230;-77
2023/06/13 15:50:37;;;;;;;;;;;28.30;58.90;;;;;;20989647;28;20409;-76
2023/06/13 16:00:38;;;;;;;;;;;27.70;57.50;;;;;;20986909;28;19916;-76
2023/06/13 16:10:38;;;;;;;;;;;27.30;57.80;;;;;;20988377;28;19921;-76
2023/06/13 16:20:39;;;;;;;;;;;26.90;57.10;;;;;;21003443;28;19916;-77
2023/06/13 16:30:42;;;;;;;;;;;26.60;57.80;;;;;;21018274;28;19974;-78
2023/06/13 16:40:43;;;;;;;;;;;26.80;57.10;;;;;;21007469;28;19912;-80
2023/06/13 16:50:43;;;;;;;;;;;26.60;56.40;;;;;;20994627;28;20424;-76
2023/06/13 17:00:44;;;;;;;;;;;26.40;57.30;;;;;;20999485;28;19928;-76
2023/06/13 17:10:45;;;;;;;;;;;26.60;57.50;;;;;;20997448;28;19916;-75
2023/06/13 17:20:50;;;;;;;;;;;26.50;57.70;;;;;;20997937;28;19912;-75
2023/06/13 17:30:50;;;;;;;;;;;25.90;57.70;;;;;;20998271;28;20015;-76
2023/06/13 17:40:51;;;;;;;;;;;25.70;58.00;;;;;;20997613;28;19956;-76
2023/06/13 17:50:51;;;;;;;;;;;25.30;58.40;;;;;;20996771;28;20047;-76
2023/06/13 18:00:52;;;;;;;;;;;25.60;59.00;;;;;;20996004;28;20381;-75
2023/06/13 18:10:53;;;;;;;;;;;26.20;58.80;;;;;;20994731;28;19967;-75
2023/06/13 18:20:54;;;;;;;;;;;26.80;57.70;;;;;;20993808;28;19920;-76
2023/06/13 18:30:55;;;;;;;;;;;27.80;57.40;;;;;;20992936;28;20379;-76
2023/06/13 18:40:56;;;;;;;;;;;27.50;57.10;;;;;;20970581;28;19912;-76
2023/06/13 18:50:57;;;;;;;;;;;25.30;57.00;;;;;;20985828;28;19924;-76
2023/06/13 19:00:58;;;;;;;;;;;23.40;58.80;;;;;;20990916;28;20359;-76
2023/06/13 19:10:59;;;;;;;;;;;22.70;60.60;;;;;;20988715;28;19916;-76
2023/06/13 19:20:59;;;;;;;;;;;22.20;61.90;;;;;;20971528;28;20412;-75
2023/06/13 19:31:00;;;;;;;;;;;21.90;63.00;;;;;;20989232;28;19916;-74
2023/06/13 19:41:01;;;;;;;;;;;21.20;65.80;;;;;;20990703;28;20054;-75
2023/06/13 19:51:01;;;;;;;;;;;20.70;67.00;;;;;;20975472;28;19917;-76
2023/06/13 20:01:03;;;;;;;;;;;20.60;67.50;;;;;;20925879;28;19917;-75
2023/06/13 20:11:05;;;;;;;;;;;20.50;68.40;;;;;;20925403;28;19999;-74
2023/06/13 20:21:06;;;;;;;;;;;20.30;68.80;;;;;;20979535;28;19967;-74
2023/06/13 20:31:07;;;;;;;;;;;20.10;70.20;;;;;;21009084;28;20376;-73
2023/06/13 20:41:08;;;;;;;;;;;19.80;71.60;;;;;;21002181;28;19913;-73
2023/06/13 20:51:09;;;;;;;;;;;19.50;72.70;;;;;;20984329;28;20051;-73
2023/06/13 21:01:15;;;;;;;;;;;19.00;74.40;;;;;;20902681;22;20451;-74
2023/06/13 21:11:16;;;;;;;;;;;18.40;76.30;;;;;;20783941;28;19976;-75
2023/06/13 21:21:17;;;;;;;;;;;17.90;78.10;;;;;;20782330;28;19913;-74
2023/06/13 21:31:18;;;;;;;;;;;17.70;78.60;;;;;;20817516;28;19918;-72
2023/06/13 21:41:21;;;;;;;;;;;17.00;80.50;;;;;;20800219;28;19914;-72
2023/06/13 21:51:21;;;;;;;;;;;16.60;81.90;;;;;;20825742;28;19917;-72
2023/06/13 22:01:22;;;;;;;;;;;16.90;80.60;;;;;;20814155;28;20382;-74
2023/06/13 22:11:23;;;;;;;;;;;17.00;80.10;;;;;;20765589;28;19924;-72
2023/06/13 22:21:25;;;;;;;;;;;16.90;80.00;;;;;;20749680;28;19992;-72
2023/06/13 22:31:26;;;;;;;;;;;16.60;80.90;;;;;;20749287;28;20395;-72
2023/06/13 22:41:27;;;;;;;;;;;16.70;81.10;;;;;;20755867;28;19913;-72
2023/06/13 22:51:28;;;;;;;;;;;16.60;81.40;;;;;;20769989;28;19924;-72
2023/06/13 23:01:32;;;;;;;;;;;16.40;81.50;;;;;;20828588;28;19956;-72
2023/06/13 23:11:33;;;;;;;;;;;16.40;81.70;;;;;;20816998;28;19925;-72
2023/06/13 23:21:33;;;;;;;;;;;16.40;82.10;;;;;;20760725;28;19913;-72
2023/06/13 23:31:40;;;;;;;;;;;16.30;82.00;;;;;;20744442;28;19918;-72
2023/06/13 23:41:40;;;;;;;;;;;16.20;83.40;;;;;;20755035;28;20006;-72
2023/06/13 23:51:41;;;;;;;;;;;16.10;83.60;;;;;;20825211;28;19973;-72
